Sunday, December 16, 2018, 6:28 AM EST
Back to Local

KUUU, Newport State Airport

Location: Middletown, RI, United States Lat: 41.533
Local Time: 6:28 AM EST (11:28 GMT) Lon: -71.283
Time Zone: US/Eastern Elev: 170 ft

Show me the last for .
Show Decoded

2018-12-16 05:53 METAR KUUU 161053Z AUTO 05008KT 10SM FEW120 06/01 A3015 RMK AO2 SLP208 T00560011
                 =
2018-12-16 04:53 METAR KUUU 160953Z AUTO VRB05KT 10SM FEW030 06/01 A3016 RMK AO2 SLP211 T00560011
                 =
2018-12-16 03:53 METAR KUUU 160853Z AUTO 04010KT 10SM FEW025 06/01 A3011 RMK AO2 SLP196 T00560006
                 58015 =
2018-12-16 02:53 METAR KUUU 160753Z AUTO 05013G20KT 10SM CLR 06/01 A3012 RMK AO2 SLP197 T00560011
                 =
2018-12-16 01:53 METAR KUUU 160653Z AUTO 05009G16KT 10SM CLR 06/01 A3017 RMK AO2 SLP214 T00560011
                 =
2018-12-16 00:53 METAR KUUU 160553Z AUTO 07006KT 10SM CLR 06/01 A3016 RMK AO2 SLP211 T00560011
                 10078 20050 58015 =
2018-12-15 23:53 METAR KUUU 160453Z AUTO 03008KT 10SM CLR 05/02 A3017 RMK AO2 SLP216 T00500017
                 401170050 =
2018-12-15 22:53 METAR KUUU 160353Z AUTO 03009KT 10SM CLR 06/02 A3020 RMK AO2 SLP226 T00560017 =
2018-12-15 21:53 METAR KUUU 160253Z AUTO 04010KT 10SM CLR 06/03 A3020 RMK AO2 SLP226 T00610028
                 51014 =
2018-12-15 20:53 METAR KUUU 160153Z AUTO 04011KT 10SM CLR 06/03 A3017 RMK AO2 SLP216 T00610033 =
2018-12-15 19:53 METAR KUUU 160053Z AUTO 03011KT 10SM CLR 07/03 A3019 RMK AO2 SLP222 T00670033 =
2018-12-15 18:53 METAR KUUU 152353Z AUTO 04012KT 10SM CLR 08/03 A3016 RMK AO2 PRESRR SLP212
                 T00830033 10117 20083 53013 =
2018-12-15 17:53 METAR KUUU 152253Z AUTO 04012KT 10SM CLR 09/06 A3011 RMK AO2 SLP194 T00890056 =
2018-12-15 16:53 METAR KUUU 152153Z AUTO 03011KT 10SM CLR 09/07 A3012 RMK AO2 SLP198 T00940072 =
2018-12-15 15:53 METAR KUUU 152053Z AUTO 03007KT 8SM CLR 09/09 A3012 RMK AO2 SLP199 T00940089
                 53000 =
2018-12-15 14:53 METAR KUUU 151953Z AUTO 01006KT 10SM CLR 10/09 A3012 RMK AO2 SLP198 T01000089 =
2018-12-15 13:53 METAR KUUU 151853Z AUTO 03003KT 10SM SCT039 BKN055 11/09 A3011 RMK AO2 SLP196
                 T01110089 =
2018-12-15 12:53 METAR KUUU 151753Z AUTO 33003KT 10SM FEW004 OVC034 11/10 A3012 RMK AO2 SLP199
                 60003 T01110100 10111 20089 56027 =
2018-12-15 12:31 METAR KUUU 151731Z AUTO 33003KT 10SM FEW003 BKN032 OVC065 11/10 A3012 RMK AO2
                 T01110100 =
2018-12-15 12:16 METAR KUUU 151716Z AUTO 00000KT 10SM SCT028 BKN034 BKN050 11/10 A3012 RMK AO2
                 T01110100 =
2018-12-15 11:53 METAR KUUU 151653Z AUTO 00000KT 10SM OVC026 11/10 A3013 RMK AO2 RAE22 SLP202
                 P0001 T01060100 =
2018-12-15 11:27 METAR KUUU 151627Z AUTO 00000KT 3SM BR OVC022 10/10 A3014 RMK AO2 RAE22 PRESFR
                 P0001 T01000100 =
2018-12-15 10:53 METAR KUUU 151553Z AUTO 00000KT 1 1/2SM -RA BR OVC021 09/09 A3018 RMK AO2 RAB09
                 SLP218 P0002 T00940094 =
2018-12-15 10:24 METAR KUUU 151524Z AUTO 33003KT 1 1/4SM -RA BR FEW004 OVC017 09/09 A3020 RMK AO2
                 RAB09 P0001 T00940089 =
2018-12-15 10:07 METAR KUUU 151507Z AUTO 36007KT 2 1/2SM BR FEW004 OVC015 09/09 A3021 RMK AO2
                 T00940089 =
2018-12-15 09:53 METAR KUUU 151453Z AUTO 35004KT 7SM BKN015 OVC028 09/09 A3020 RMK AO2 RAB26E39
                 SLP226 P0000 60000 T00940089 52006 =
2018-12-15 08:53 METAR KUUU 151353Z AUTO 34004KT 10SM OVC018 09/08 A3019 RMK AO2 SLP223 T00940083
                 =
2018-12-15 07:53 METAR KUUU 151253Z AUTO 30005KT 10SM OVC021 09/08 A3019 RMK AO2 SLP224 T00890078
                 =
2018-12-15 06:53 METAR KUUU 151153Z AUTO 27004KT 10SM OVC024 09/08 A3018 RMK AO2 SLP220 60001
                 70001 T00890083 10089 20083 58001 =

Support USWX by starting your Amazon purchase here.